createdAt,value
2022-10-16T00:04:06.733Z,5.45
2022-10-16T00:09:33.462Z,5.46
2022-10-16T00:14:57.730Z,5.38
2022-10-16T00:20:23.647Z,5.23
2022-10-16T00:25:58.084Z,5.23
2022-10-16T00:31:23.531Z,5.22
2022-10-16T00:36:49.461Z,5.27
2022-10-16T00:42:20.220Z,5.31
2022-10-16T00:47:50.111Z,5.37
2022-10-16T00:53:17.161Z,5.38
2022-10-16T00:58:42.353Z,5.37
2022-10-16T01:04:06.333Z,5.35
2022-10-16T01:09:39.613Z,5.38
2022-10-16T01:15:12.358Z,5.38
2022-10-16T01:20:43.898Z,5.37
2022-10-16T01:26:29.952Z,5.37
2022-10-16T01:32:01.326Z,5.35
2022-10-16T01:37:35.152Z,5.31
2022-10-16T01:43:05.249Z,5.25
2022-10-16T01:48:31.740Z,5.18
2022-10-16T01:54:01.238Z,5.17
2022-10-16T01:59:32.133Z,5.10
2022-10-16T02:05:04.350Z,5.09
2022-10-16T02:10:32.446Z,5.05
2022-10-16T02:15:57.024Z,5.02
2022-10-16T02:21:27.653Z,4.97
2022-10-16T02:26:59.248Z,4.95
2022-10-16T02:32:29.454Z,4.84
2022-10-16T02:37:56.968Z,4.85
2022-10-16T02:43:21.805Z,4.77
2022-10-16T02:48:47.540Z,4.73
2022-10-16T02:54:12.816Z,4.74
2022-10-16T02:59:36.731Z,4.74
2022-10-16T03:05:02.302Z,4.76
2022-10-16T03:10:28.446Z,4.75
2022-10-16T03:15:54.291Z,4.71
2022-10-16T03:21:18.977Z,4.68
2022-10-16T03:26:44.918Z,4.70
2022-10-16T03:32:10.348Z,4.67
2022-10-16T03:37:34.777Z,4.63
2022-10-16T03:43:01.682Z,4.53
2022-10-16T03:48:29.130Z,4.50
2022-10-16T03:53:54.134Z,4.45
2022-10-16T03:59:20.198Z,4.39
2022-10-16T04:04:44.747Z,4.41
2022-10-16T04:10:11.596Z,4.40
2022-10-16T04:15:37.122Z,4.40
2022-10-16T04:21:04.984Z,4.44
2022-10-16T04:26:29.588Z,4.50
2022-10-16T04:31:55.119Z,4.62
2022-10-16T04:37:18.948Z,4.72
2022-10-16T04:42:43.145Z,5.04
2022-10-16T04:48:08.696Z,6.07
2022-10-16T04:53:33.273Z,7.70
2022-10-16T04:58:57.477Z,9.23
2022-10-16T05:04:27.425Z,10.63
2022-10-16T05:09:51.517Z,12.05
2022-10-16T05:15:16.211Z,12.94
2022-10-16T05:20:41.566Z,13.25
2022-10-16T05:26:05.610Z,14.31
2022-10-16T05:31:30.850Z,14.97
2022-10-16T05:36:56.226Z,15.49
2022-10-16T05:42:21.997Z,16.26
2022-10-16T05:47:46.537Z,16.68
2022-10-16T05:53:12.090Z,17.20
2022-10-16T05:58:38.116Z,17.33
2022-10-16T06:04:01.982Z,17.72
2022-10-16T06:09:28.610Z,17.12
2022-10-16T06:14:53.594Z,17.40
2022-10-16T06:20:17.733Z,17.81
2022-10-16T06:25:46.485Z,18.09
2022-10-16T06:31:12.390Z,18.55
2022-10-16T06:36:37.502Z,18.48
2022-10-16T06:42:03.302Z,17.84
2022-10-16T06:47:34.472Z,17.66
2022-10-16T06:52:59.009Z,17.54
2022-10-16T06:58:25.831Z,16.79
2022-10-16T07:03:54.876Z,17.27
2022-10-16T07:09:19.251Z,17.76
2022-10-16T07:14:45.327Z,18.14
2022-10-16T07:20:12.170Z,18.37
2022-10-16T07:25:37.039Z,18.74
2022-10-16T07:31:06.967Z,19.51
2022-10-16T07:36:33.875Z,20.68
2022-10-16T07:41:59.494Z,20.98
2022-10-16T07:47:25.720Z,20.82
2022-10-16T07:52:54.115Z,21.25
2022-10-16T07:58:18.842Z,20.58
2022-10-16T08:03:46.219Z,20.31
2022-10-16T08:09:11.349Z,20.12
2022-10-16T08:14:35.783Z,19.80
2022-10-16T08:20:02.755Z,20.18
2022-10-16T08:25:28.215Z,20.47
2022-10-16T08:30:53.855Z,20.47
2022-10-16T08:36:20.051Z,20.97
2022-10-16T08:42:11.594Z,22.02
2022-10-16T08:47:46.838Z,22.10
2022-10-16T08:53:18.617Z,21.84
2022-10-16T08:58:43.060Z,21.43
2022-10-16T09:04:52.870Z,21.58
2022-10-16T09:10:32.250Z,20.72
2022-10-16T09:16:09.944Z,19.90
2022-10-16T09:21:38.259Z,19.98
2022-10-16T09:27:04.429Z,20.45
2022-10-16T09:32:30.701Z,19.43
2022-10-16T09:37:57.223Z,18.96
2022-10-16T09:43:31.860Z,19.37
2022-10-16T09:48:59.677Z,19.32
2022-10-16T09:54:24.758Z,18.91
2022-10-16T09:59:52.660Z,19.03
2022-10-16T10:05:23.121Z,19.49
2022-10-16T10:10:51.071Z,19.49
2022-10-16T10:16:25.917Z,19.60
2022-10-16T10:21:52.786Z,19.88
2022-10-16T10:27:20.734Z,20.11
2022-10-16T10:32:55.924Z,19.73
2022-10-16T10:38:32.984Z,19.82
2022-10-16T10:44:09.988Z,18.69
2022-10-16T10:49:50.981Z,19.32
2022-10-16T10:55:24.908Z,19.59
2022-10-16T11:00:58.957Z,19.30
2022-10-16T11:06:28.476Z,19.24
2022-10-16T11:11:58.749Z,19.40
2022-10-16T11:17:27.587Z,19.30
2022-10-16T11:23:00.246Z,19.53
2022-10-16T11:28:31.775Z,19.25
2022-10-16T11:34:04.165Z,19.23
2022-10-16T11:39:32.039Z,19.27
2022-10-16T11:45:02.977Z,18.89
2022-10-16T11:50:33.884Z,19.15
2022-10-16T11:56:00.664Z,19.39
2022-10-16T12:01:33.890Z,19.10
2022-10-16T12:07:07.783Z,19.25
2022-10-16T12:12:41.476Z,19.12
2022-10-16T12:18:05.838Z,19.20
2022-10-16T12:23:30.184Z,19.23
2022-10-16T12:28:56.834Z,19.32
2022-10-16T12:34:25.808Z,19.36
2022-10-16T12:39:51.381Z,19.40
2022-10-16T12:45:26.966Z,19.13
2022-10-16T12:50:50.983Z,18.94
2022-10-16T12:56:26.555Z,18.97
2022-10-16T13:02:17.062Z,18.71
2022-10-16T13:07:54.916Z,18.78
2022-10-16T13:13:34.878Z,18.69
2022-10-16T13:19:17.608Z,18.55
2022-10-16T13:24:56.104Z,18.40
2022-10-16T13:30:28.155Z,18.21
2022-10-16T13:36:00.382Z,17.99
2022-10-16T13:41:24.484Z,17.93
2022-10-16T13:46:48.902Z,17.88
2022-10-16T13:52:20.877Z,17.82
2022-10-16T13:57:45.698Z,17.74
2022-10-16T14:03:17.346Z,17.32
2022-10-16T14:08:47.046Z,17.18
2022-10-16T14:14:13.663Z,16.87
2022-10-16T14:19:38.813Z,16.55
2022-10-16T14:25:18.882Z,16.34
2022-10-16T14:30:53.140Z,16.09
2022-10-16T14:36:20.425Z,15.84
2022-10-16T14:41:49.912Z,15.61
2022-10-16T14:47:23.264Z,15.31
2022-10-16T14:52:48.142Z,15.13
2022-10-16T14:58:18.585Z,14.95
2022-10-16T15:03:43.198Z,14.81
2022-10-16T15:09:08.638Z,14.63
2022-10-16T15:14:34.473Z,14.51
2022-10-16T15:20:00.195Z,14.42
2022-10-16T15:25:33.827Z,14.24
2022-10-16T15:31:01.230Z,14.13
2022-10-16T15:36:28.923Z,13.97
2022-10-16T15:41:54.419Z,13.88
2022-10-16T15:47:20.600Z,13.78
2022-10-16T15:52:45.167Z,13.67
2022-10-16T15:58:10.660Z,13.57
2022-10-16T16:03:36.884Z,13.43
2022-10-16T16:14:28.313Z,13.14
2022-10-16T16:19:54.398Z,12.89
2022-10-16T16:25:18.726Z,12.76
2022-10-16T16:30:43.249Z,12.66
2022-10-16T16:36:15.344Z,12.50
2022-10-16T16:41:40.200Z,12.21
2022-10-16T16:47:05.654Z,12.17
2022-10-16T16:52:32.809Z,12.00
2022-10-16T16:57:58.674Z,11.43
2022-10-16T17:03:24.120Z,11.07
2022-10-16T17:08:50.650Z,10.90
2022-10-16T17:14:16.271Z,10.53
2022-10-16T17:19:42.373Z,10.53
2022-10-16T17:25:09.399Z,10.53
2022-10-16T17:30:35.582Z,10.70
2022-10-16T17:36:03.491Z,10.66
2022-10-16T17:41:29.784Z,10.49
2022-10-16T17:46:55.284Z,10.48
2022-10-16T17:52:20.144Z,10.57
2022-10-16T17:57:46.281Z,10.57
2022-10-16T18:03:11.689Z,10.68
2022-10-16T18:08:36.727Z,10.68
2022-10-16T18:14:03.875Z,10.75
2022-10-16T18:19:28.447Z,10.72
2022-10-16T18:24:52.653Z,10.54
2022-10-16T18:30:18.327Z,10.45
2022-10-16T18:35:44.005Z,10.43
2022-10-16T18:41:08.582Z,10.40
2022-10-16T18:46:34.602Z,10.26
2022-10-16T18:52:00.609Z,10.21
2022-10-16T18:57:30.161Z,10.18
2022-10-16T19:02:56.498Z,10.16
2022-10-16T19:08:20.317Z,9.97
2022-10-16T19:13:47.869Z,9.80
2022-10-16T19:19:18.245Z,9.76
2022-10-16T19:24:45.046Z,9.80
2022-10-16T19:35:41.687Z,9.58
2022-10-16T19:41:07.761Z,9.52
2022-10-16T19:46:33.733Z,9.39
2022-10-16T19:51:59.663Z,9.44
2022-10-16T19:57:27.344Z,9.36
2022-10-16T20:02:51.875Z,9.32
2022-10-16T20:08:17.985Z,9.24
2022-10-16T20:13:42.622Z,9.15
2022-10-16T20:19:08.142Z,9.10
2022-10-16T20:24:34.709Z,9.09
2022-10-16T20:29:59.570Z,9.08
2022-10-16T20:35:24.890Z,9.09
2022-10-16T20:40:51.075Z,9.07
2022-10-16T20:46:21.846Z,9.05
2022-10-16T20:51:49.838Z,8.98
2022-10-16T20:57:16.985Z,8.91
2022-10-16T21:02:41.515Z,8.80
2022-10-16T21:08:05.782Z,8.73
2022-10-16T21:13:31.526Z,8.68
2022-10-16T21:18:56.201Z,8.59
2022-10-16T21:24:20.827Z,8.45
2022-10-16T21:29:49.526Z,8.35
2022-10-16T21:35:13.535Z,8.18
2022-10-16T21:40:37.785Z,8.03
2022-10-16T21:46:03.850Z,8.06
2022-10-16T21:51:29.302Z,8.05
2022-10-16T21:56:53.873Z,7.96
2022-10-16T22:02:19.440Z,7.91
2022-10-16T22:07:43.148Z,7.91
2022-10-16T22:13:08.486Z,7.89
2022-10-16T22:18:35.709Z,7.80
2022-10-16T22:24:00.830Z,7.87
2022-10-16T22:29:26.130Z,7.91
2022-10-16T22:34:52.004Z,7.82
2022-10-16T22:40:16.897Z,7.76
2022-10-16T22:45:41.261Z,7.77
2022-10-16T22:51:08.389Z,7.76
2022-10-16T22:56:33.145Z,7.71
2022-10-16T23:01:59.225Z,7.62
2022-10-16T23:07:25.139Z,7.53
2022-10-16T23:12:49.575Z,7.38
2022-10-16T23:18:14.796Z,6.95
2022-10-16T23:23:43.101Z,6.60
2022-10-16T23:29:07.965Z,6.48
2022-10-16T23:34:32.625Z,6.59
2022-10-16T23:39:58.405Z,6.61
2022-10-16T23:45:22.891Z,6.67
2022-10-16T23:50:47.921Z,6.69
2022-10-16T23:56:15.061Z,6.73
